• Join FlightAware (Why Join?)
  • Login
  • US Flag 
03:06PM EDT


 

Airport Tracker/Info


-or-


 

Live Flight TrackerFlight Track Log ✈ LOF3416 ✈ 15-Sep-2013 ✈ KORD - KSGF

Flight Track Log - Related Links

Times and Time Zones

All times are in EDT time to prevent confusion due to time zone crossing. See the LOF3416 flight status page for this flight to view local times or setup timezone preferences in your user account.

Time Position Orientation Groundspeed Altitude Reporting Facility
EDT Latitude Longitude Course Direction KTS MPH feet Rate Location/Type
09:32PM 41.9167 -87.9333 198° South 201 231 2,500  Level Chicago TRACON
09:34PM 41.8089 -87.9906 202° Southwest 246 283 5,800 1,920 Climbing Chicago Center
09:35PM 41.7322 -88.0233 198° South 280 322 8,100 2,040 Climbing Chicago Center
09:36PM 41.6528 -88.0617 200° South 302 348 10,100 1,920 Climbing Chicago Center
09:37PM 41.5499 -88.4525 198° South  Level Estimated
09:37PM 41.5542 -88.1092 200° South 316 364 12,100  Level Chicago Center
09:38PM 41.4664 -88.1522 200° South 342 394 13,400 1,320 Climbing Chicago Center
09:39PM 41.3747 -88.1944 199° South 358 412 14,900 1,500 Climbing Chicago Center
09:40PM 41.2611 -88.2456 199° South 365 420 16,600 1,380 Climbing Chicago Center
09:41PM 41.1664 -88.2875 198° South 363 418 17,800 1,320 Climbing Chicago Center
09:42PM 41.0728 -88.3300 199° South 358 412 19,400 1,500 Climbing Chicago Center
09:43PM 40.9803 -88.3717 199° South 354 407 20,900 1,440 Climbing Chicago Center
09:44PM 40.8883 -88.4125 199° South 351 404 22,400 1,440 Climbing Chicago Center
09:45PM 40.7972 -88.4539 199° South 349 402 23,900 1,320 Climbing Chicago Center
09:46PM 40.6881 -88.5019 198° South 348 400 25,200 1,020 Climbing Chicago Center
09:47PM 40.5933 -88.5461 199° South 360 414 26,000 360 Climbing Chicago Center
09:48PM 40.5117 -88.6342 219° Southwest 381 438 26,000  Level Chicago Center
09:49PM 40.4339 -88.7239 221° Southwest 403 464 26,000  Level Chicago Center
09:50PM 40.3453 -88.8256 221° Southwest 418 481 26,000  Level Chicago Center
09:51PM 40.2525 -88.9306 221° Southwest 432 497 26,000  Level Chicago Center
09:52PM 40.1403 -89.0603 221° Southwest 445 512 26,000  Level Chicago Center
09:53PM 40.0828 -89.1261 221° Southwest 444 511 26,000  Level Kansas City Center
09:54PM 39.9892 -89.2317 221° Southwest 443 510 26,000  Level Kansas City Center
09:55PM 39.8964 -89.3378 221° Southwest 442 509 26,000  Level Kansas City Center
09:56PM 39.8100 -89.4486 225° Southwest 437 503 26,000  Level Kansas City Center
09:57PM 39.7367 -89.5742 233° Southwest 434 499 26,000  Level Kansas City Center
09:58PM 39.6583 -89.7008 231° Southwest 432 497 26,000  Level Kansas City Center
09:59PM 39.5831 -89.8214 231° Southwest 431 496 26,000  Level Kansas City Center
10:00PM 39.4939 -89.9661 231° Southwest 430 495 26,000  Level Kansas City Center
10:01PM 39.4189 -90.0861 231° Southwest 430 495 26,000  Level Kansas City Center
10:02PM 39.3442 -90.2042 231° Southwest 428 493 26,000  Level Kansas City Center
10:03PM 39.2697 -90.3222 231° Southwest 427 491 26,000  Level Kansas City Center
10:04PM 39.1953 -90.4411 231° Southwest 427 491 26,000  Level Kansas City Center
10:05PM 39.1214 -90.5589 231° Southwest 428 493 26,000  Level Kansas City Center
10:06PM 39.0461 -90.6772 231° Southwest 430 495 26,000  Level Kansas City Center
10:07PM 38.9575 -90.8172 231° Southwest 428 493 26,000  Level Kansas City Center
10:08PM 38.8825 -90.9347 231° Southwest 430 495 26,000  Level Kansas City Center
10:09PM 38.8067 -91.0517 230° Southwest 430 495 26,000  Level Kansas City Center
10:10PM 38.7314 -91.1689 231° Southwest 430 495 26,000  Level Kansas City Center
10:11PM 38.6558 -91.2867 231° Southwest 430 495 26,000  Level Kansas City Center
10:12PM 38.5722 -91.4161 230° Southwest 431 496 26,000  Level Kansas City Center
10:13PM 38.4956 -91.5336 230° Southwest 431 496 26,000  Level Kansas City Center
10:14PM 38.4181 -91.6511 230° Southwest 431 496 26,000  Level Kansas City Center
10:15PM 38.3397 -91.7686 230° Southwest 433 498 26,000  Level Kansas City Center
10:16PM 38.2622 -91.8867 230° Southwest 434 499 26,000 -600 Level Kansas City Center
10:17PM 38.1833 -92.0044 230° Southwest 435 501 24,900 -1,500 Descending Kansas City Center
10:18PM 38.1014 -92.1278 230° Southwest 429 494 23,000 -1,740 Descending Kansas City Center
10:19PM 38.0256 -92.2411 230° Southwest 424 488 21,400 -1,620 Descending Kansas City Center
10:20PM 37.9519 -92.3517 230° Southwest 414 476 19,800 -1,560 Descending Kansas City Center
10:21PM 37.8814 -92.4561 229° Southwest 400 460 18,300 -1,620 Descending Kansas City Center
10:22PM 37.7981 -92.5797 230° Southwest 389 448 16,500 -1,800 Descending Kansas City Center
10:24PM 37.7283 -92.6828 229° Southwest 374 430 14,700 -2,220 Descending Kansas City Center
10:25PM 37.6658 -92.7742 229° Southwest 352 405 12,000 -2,220 Descending Kansas City Center
10:26PM 37.6075 -92.8589 229° Southwest 335 386 10,300 -1,380 Descending Kansas City Center
10:27PM 37.5597 -92.9331 231° Southwest 299 344 9,200 -1,200 Descending Kansas City Center
10:28PM 37.5150 -93.0047 232° Southwest 274 315 7,900 -1,380 Descending Kansas City Center
10:29PM 37.4728 -93.0839 236° Southwest 270 311 6,400 -1,500 Descending Kansas City Center
10:30PM 37.4333 -93.1592 237° Southwest 263 303 4,900 -1,320 Descending Kansas City Center
10:31PM 37.3936 -93.2308 235° Southwest 256 295 3,800 -960 Descending Kansas City Center
10:32PM 37.3567 -93.2981 235° Southwest 245 282 3,000 -540 Descending Kansas City Center
10:33PM 37.3250 -93.3417 228° Southwest 195 224 2,700 -480 Descending Kansas City Center
10:34PM 37.2917 -93.3611 205° Southwest 154 177 2,100 -600 Descending Kansas City Center
10:35PM 37.2556 -93.3797 202° Southwest 140 161 1,600 -540 Descending Kansas City Center
10:37PM 37.2457 -93.3886 219° Southwest  Level Estimated
10:44PM 37.2457 -93.3886 219° Southwest  Level Estimated
10:45PM 37.2457 -93.3886 219° Southwest  Level Estimated